createdAt,value
2022-09-05T00:02:52.436Z,19.1
2022-09-05T00:13:06.890Z,19.1
2022-09-05T00:24:33.568Z,19
2022-09-05T00:32:59.436Z,18.8
2022-09-05T00:43:01.192Z,18.8
2022-09-05T00:53:06.409Z,18.8
2022-09-05T01:03:06.041Z,18.7
2022-09-05T01:13:07.803Z,18.6
2022-09-05T01:23:09.650Z,18.5
2022-09-05T01:33:11.679Z,18.4
2022-09-05T01:43:14.132Z,18.4
2022-09-05T01:53:16.030Z,18.3
2022-09-05T02:03:17.869Z,18.2
2022-09-05T02:15:59.611Z,18.1
2022-09-05T02:23:40.615Z,18
2022-09-05T02:33:34.153Z,17.9
2022-09-05T02:45:15.839Z,17.7
2022-09-05T02:57:30.717Z,17.7
2022-09-05T03:03:39.736Z,17.6
2022-09-05T03:13:46.315Z,17.5
2022-09-05T03:23:44.580Z,17.4
2022-09-05T03:33:47.133Z,17.3
2022-09-05T03:43:49.523Z,17.2
2022-09-05T03:57:21.535Z,17.1
2022-09-05T04:07:14.958Z,17.2
2022-09-05T04:13:56.116Z,17.1
2022-09-05T04:23:58.347Z,17
2022-09-05T04:34:00.809Z,16.8
2022-09-05T04:44:03.239Z,16.6
2022-09-05T04:54:05.764Z,16.5
2022-09-05T05:18:05.361Z,16.5
2022-09-05T05:24:11.746Z,16.6
2022-09-05T05:34:23.819Z,16.6
2022-09-05T05:44:16.782Z,16.4
2022-09-05T05:54:18.488Z,16.6
2022-09-05T06:04:20.634Z,16.4
2022-09-05T06:14:54.298Z,16.6
2022-09-05T06:24:25.437Z,16.8
2022-09-05T06:34:33.613Z,17
2022-09-05T06:44:30.671Z,17.3
2022-09-05T06:54:32.526Z,17.9
2022-09-05T07:05:14.997Z,18.4
2022-09-05T07:24:47.581Z,19.7
2022-09-05T07:34:40.987Z,20.2
2022-09-05T07:44:42.854Z,20.7
2022-09-05T08:04:47.915Z,22.3
2022-09-05T08:14:50.285Z,23.2
2022-09-05T08:24:52.605Z,23.7
2022-09-05T08:34:54.477Z,24.6
2022-09-05T08:46:38.674Z,25
2022-09-05T08:55:04.240Z,25.4
2022-09-05T09:05:02.806Z,25.5
2022-09-05T09:15:03.362Z,25.8
2022-09-05T09:25:14.671Z,26.1
2022-09-05T09:35:06.805Z,26.9
2022-09-05T09:45:21.533Z,27.3
2022-09-05T09:55:13.273Z,27.7
2022-09-05T10:10:29.503Z,27.6
2022-09-05T10:15:30.158Z,27.7
2022-09-05T10:25:19.538Z,28.3
2022-09-05T10:35:21.991Z,27.8
2022-09-05T10:55:24.070Z,28.4
2022-09-05T11:05:26.435Z,28.2
2022-09-05T11:15:28.085Z,28.3
2022-09-05T11:25:37.006Z,28.7
2022-09-05T11:38:24.042Z,28.3
2022-09-05T11:45:34.712Z,28.1
2022-09-05T11:55:36.906Z,28.9
2022-09-05T12:05:48.241Z,29.4
2022-09-05T12:15:42.624Z,30.1
2022-09-05T12:27:37.963Z,30.4
2022-09-05T12:36:09.176Z,30.4
2022-09-05T12:45:49.980Z,30
2022-09-05T12:55:59.401Z,29.8
2022-09-05T13:05:53.372Z,30.3
2022-09-05T13:15:55.401Z,30.9
2022-09-05T13:25:57.727Z,31.4
2022-09-05T13:38:09.157Z,31.5
2022-09-05T13:46:01.886Z,30.8
2022-09-05T13:56:03.775Z,30.6
2022-09-05T14:06:24.846Z,30.6
2022-09-05T14:16:08.186Z,30.3
2022-09-05T14:26:14.306Z,30.6
2022-09-05T14:37:38.085Z,31.4
2022-09-05T14:46:14.245Z,31.2
2022-09-05T14:56:50.221Z,30.3
2022-09-05T15:06:17.941Z,30.3
2022-09-05T15:16:19.994Z,30.6
2022-09-05T15:26:22.839Z,30.5
2022-09-05T15:36:24.262Z,31.4
2022-09-05T15:46:29.552Z,30.8
2022-09-05T15:56:28.084Z,30.5
2022-09-05T16:19:03.550Z,30.6
2022-09-05T16:26:34.493Z,30.7
2022-09-05T16:36:36.372Z,30.1
2022-09-05T17:16:44.539Z,29
2022-09-05T17:36:49.526Z,28.5
2022-09-05T17:56:54.371Z,28.2
2022-09-05T18:17:37.063Z,27.5
2022-09-05T18:27:15.067Z,27.3
2022-09-05T18:37:02.314Z,27.2
2022-09-05T18:47:04.072Z,27
2022-09-05T18:57:19.980Z,26.7
2022-09-05T19:07:08.606Z,26.3
2022-09-05T19:17:10.908Z,25.8
2022-09-05T19:27:53.335Z,25.6
2022-09-05T19:37:25.880Z,25.1
2022-09-05T19:47:31.966Z,24.8
2022-09-05T19:57:18.634Z,24.4
2022-09-05T20:07:21.265Z,24.1
2022-09-05T20:17:23.762Z,23.9
2022-09-05T20:27:27.372Z,23.9
2022-09-05T20:42:51.292Z,23.7
2022-09-05T20:49:00.895Z,23.4
2022-09-05T20:57:33.701Z,23.2
2022-09-05T21:07:35.805Z,23
2022-09-05T21:17:37.689Z,22.7
2022-09-05T21:27:39.816Z,22.4
2022-09-05T21:37:42.305Z,22.2
2022-09-05T21:47:51.825Z,21.8
2022-09-05T21:59:23.106Z,21.5
2022-09-05T22:07:49.427Z,21.5
2022-09-05T22:17:51.291Z,21.4
2022-09-05T22:27:53.613Z,21.4
2022-09-05T22:37:59.872Z,21.5
2022-09-05T22:47:58.169Z,21.4
2022-09-05T22:58:00.030Z,21.4
2022-09-05T23:08:02.155Z,21.3
2022-09-05T23:18:04.763Z,21.3
2022-09-05T23:28:06.854Z,21.3
2022-09-05T23:38:09.037Z,21.1
2022-09-05T23:48:10.746Z,21.2
2022-09-05T23:58:12.475Z,21.1
